sensor_id;sensor_type;location;lat;lon;timestamp;P1;durP1;ratioP1;P2;durP2;ratioP2
14923;SDS011;7554;43.600;1.480;2024-01-30T00:00:53;12.10;;;4.57;;
14923;SDS011;7554;43.600;1.480;2024-01-30T00:03:22;7.73;;;3.77;;
14923;SDS011;7554;43.600;1.480;2024-01-30T00:05:49;11.20;;;4.23;;
14923;SDS011;7554;43.600;1.480;2024-01-30T00:08:17;10.30;;;4.20;;
14923;SDS011;7554;43.600;1.480;2024-01-30T00:10:44;11.23;;;3.97;;
14923;SDS011;7554;43.600;1.480;2024-01-30T00:13:12;11.33;;;4.40;;
14923;SDS011;7554;43.600;1.480;2024-01-30T00:15:42;8.40;;;4.40;;
14923;SDS011;7554;43.600;1.480;2024-01-30T00:18:09;10.83;;;4.23;;
14923;SDS011;7554;43.600;1.480;2024-01-30T00:20:37;9.13;;;4.00;;
14923;SDS011;7554;43.600;1.480;2024-01-30T00:23:05;10.37;;;4.17;;
14923;SDS011;7554;43.600;1.480;2024-01-30T00:25:32;13.07;;;4.93;;
14923;SDS011;7554;43.600;1.480;2024-01-30T00:27:59;8.87;;;4.57;;
14923;SDS011;7554;43.600;1.480;2024-01-30T00:30:27;13.27;;;4.40;;
14923;SDS011;7554;43.600;1.480;2024-01-30T00:32:54;8.70;;;4.33;;
14923;SDS011;7554;43.600;1.480;2024-01-30T00:35:22;14.60;;;4.53;;
14923;SDS011;7554;43.600;1.480;2024-01-30T00:37:50;10.57;;;4.20;;
14923;SDS011;7554;43.600;1.480;2024-01-30T00:40:18;14.07;;;5.00;;
14923;SDS011;7554;43.600;1.480;2024-01-30T00:42:45;13.33;;;4.40;;
14923;SDS011;7554;43.600;1.480;2024-01-30T00:45:14;10.40;;;4.27;;
14923;SDS011;7554;43.600;1.480;2024-01-30T00:47:42;8.73;;;4.33;;
14923;SDS011;7554;43.600;1.480;2024-01-30T00:50:10;10.00;;;4.77;;
14923;SDS011;7554;43.600;1.480;2024-01-30T00:52:37;11.50;;;4.13;;
14923;SDS011;7554;43.600;1.480;2024-01-30T00:55:08;7.23;;;4.23;;
14923;SDS011;7554;43.600;1.480;2024-01-30T00:57:35;14.13;;;4.67;;
14923;SDS011;7554;43.600;1.480;2024-01-30T01:00:02;9.17;;;4.80;;
14923;SDS011;7554;43.600;1.480;2024-01-30T01:02:31;13.17;;;4.80;;
14923;SDS011;7554;43.600;1.480;2024-01-30T01:04:59;8.63;;;3.83;;
14923;SDS011;7554;43.600;1.480;2024-01-30T01:07:26;7.90;;;4.00;;
14923;SDS011;7554;43.600;1.480;2024-01-30T01:09:53;9.37;;;4.27;;
14923;SDS011;7554;43.600;1.480;2024-01-30T01:12:22;11.23;;;4.67;;
14923;SDS011;7554;43.600;1.480;2024-01-30T01:14:49;7.97;;;4.23;;
14923;SDS011;7554;43.600;1.480;2024-01-30T01:17:16;12.10;;;3.97;;
14923;SDS011;7554;43.600;1.480;2024-01-30T01:19:44;15.43;;;4.13;;
14923;SDS011;7554;43.600;1.480;2024-01-30T01:22:12;9.33;;;4.17;;
14923;SDS011;7554;43.600;1.480;2024-01-30T01:24:39;8.27;;;3.67;;
14923;SDS011;7554;43.600;1.480;2024-01-30T01:27:06;9.60;;;4.17;;
14923;SDS011;7554;43.600;1.480;2024-01-30T01:29:35;11.87;;;3.90;;
14923;SDS011;7554;43.600;1.480;2024-01-30T01:32:02;7.37;;;3.80;;
14923;SDS011;7554;43.600;1.480;2024-01-30T01:34:30;12.83;;;4.40;;
14923;SDS011;7554;43.600;1.480;2024-01-30T01:36:57;7.57;;;3.23;;
14923;SDS011;7554;43.600;1.480;2024-01-30T01:39:24;4.83;;;2.87;;
14923;SDS011;7554;43.600;1.480;2024-01-30T01:41:51;10.60;;;4.00;;
14923;SDS011;7554;43.600;1.480;2024-01-30T01:44:19;9.90;;;4.10;;
14923;SDS011;7554;43.600;1.480;2024-01-30T01:46:47;12.90;;;3.90;;
14923;SDS011;7554;43.600;1.480;2024-01-30T01:49:15;9.37;;;4.40;;
14923;SDS011;7554;43.600;1.480;2024-01-30T01:51:42;13.70;;;4.50;;
14923;SDS011;7554;43.600;1.480;2024-01-30T01:54:11;12.20;;;4.20;;
14923;SDS011;7554;43.600;1.480;2024-01-30T01:56:39;10.37;;;4.50;;
14923;SDS011;7554;43.600;1.480;2024-01-30T01:59:07;10.23;;;4.13;;
14923;SDS011;7554;43.600;1.480;2024-01-30T02:01:35;8.30;;;3.80;;
14923;SDS011;7554;43.600;1.480;2024-01-30T02:04:04;14.40;;;4.60;;
14923;SDS011;7554;43.600;1.480;2024-01-30T02:06:31;11.97;;;4.50;;
14923;SDS011;7554;43.600;1.480;2024-01-30T02:08:59;8.53;;;4.73;;
14923;SDS011;7554;43.600;1.480;2024-01-30T02:11:27;8.57;;;3.57;;
14923;SDS011;7554;43.600;1.480;2024-01-30T02:13:55;11.90;;;3.97;;
14923;SDS011;7554;43.600;1.480;2024-01-30T02:16:22;6.30;;;2.93;;
14923;SDS011;7554;43.600;1.480;2024-01-30T02:18:49;11.87;;;4.20;;
14923;SDS011;7554;43.600;1.480;2024-01-30T02:21:18;7.80;;;3.50;;
14923;SDS011;7554;43.600;1.480;2024-01-30T02:23:46;12.97;;;4.37;;
14923;SDS011;7554;43.600;1.480;2024-01-30T02:26:15;10.53;;;4.07;;
14923;SDS011;7554;43.600;1.480;2024-01-30T02:28:42;13.90;;;4.13;;
14923;SDS011;7554;43.600;1.480;2024-01-30T02:31:09;10.50;;;4.07;;
14923;SDS011;7554;43.600;1.480;2024-01-30T02:33:37;13.90;;;3.83;;
14923;SDS011;7554;43.600;1.480;2024-01-30T02:36:04;6.27;;;2.53;;
14923;SDS011;7554;43.600;1.480;2024-01-30T02:38:33;11.93;;;4.07;;
14923;SDS011;7554;43.600;1.480;2024-01-30T02:41:00;10.83;;;4.03;;
14923;SDS011;7554;43.600;1.480;2024-01-30T02:43:28;8.73;;;3.57;;
14923;SDS011;7554;43.600;1.480;2024-01-30T02:45:55;12.37;;;4.27;;
14923;SDS011;7554;43.600;1.480;2024-01-30T02:48:23;10.67;;;4.10;;
14923;SDS011;7554;43.600;1.480;2024-01-30T02:50:50;10.70;;;3.70;;
14923;SDS011;7554;43.600;1.480;2024-01-30T02:53:18;13.87;;;4.20;;
14923;SDS011;7554;43.600;1.480;2024-01-30T02:55:46;11.00;;;4.27;;
14923;SDS011;7554;43.600;1.480;2024-01-30T02:58:13;10.80;;;3.50;;
14923;SDS011;7554;43.600;1.480;2024-01-30T03:00:41;8.93;;;3.90;;
14923;SDS011;7554;43.600;1.480;2024-01-30T03:03:08;11.60;;;3.77;;
14923;SDS011;7554;43.600;1.480;2024-01-30T03:05:35;14.90;;;3.63;;
14923;SDS011;7554;43.600;1.480;2024-01-30T03:08:04;11.47;;;3.87;;
14923;SDS011;7554;43.600;1.480;2024-01-30T03:10:31;12.90;;;4.00;;
14923;SDS011;7554;43.600;1.480;2024-01-30T03:13:00;9.23;;;3.60;;
14923;SDS011;7554;43.600;1.480;2024-01-30T03:15:28;9.10;;;3.73;;
14923;SDS011;7554;43.600;1.480;2024-01-30T03:17:55;11.33;;;3.50;;
14923;SDS011;7554;43.600;1.480;2024-01-30T03:20:22;14.03;;;4.17;;
14923;SDS011;7554;43.600;1.480;2024-01-30T03:22:50;13.00;;;4.27;;
14923;SDS011;7554;43.600;1.480;2024-01-30T03:25:17;11.97;;;4.03;;
14923;SDS011;7554;43.600;1.480;2024-01-30T03:27:44;10.60;;;3.60;;
14923;SDS011;7554;43.600;1.480;2024-01-30T03:30:13;8.53;;;3.70;;
14923;SDS011;7554;43.600;1.480;2024-01-30T03:32:41;10.63;;;3.37;;
14923;SDS011;7554;43.600;1.480;2024-01-30T03:35:08;15.17;;;4.20;;
14923;SDS011;7554;43.600;1.480;2024-01-30T03:37:36;10.17;;;3.87;;
14923;SDS011;7554;43.600;1.480;2024-01-30T03:40:03;11.23;;;4.50;;
14923;SDS011;7554;43.600;1.480;2024-01-30T03:42:31;13.47;;;4.03;;
14923;SDS011;7554;43.600;1.480;2024-01-30T03:44:59;14.23;;;4.00;;
14923;SDS011;7554;43.600;1.480;2024-01-30T03:47:27;13.93;;;3.93;;
14923;SDS011;7554;43.600;1.480;2024-01-30T03:49:54;9.77;;;4.00;;
14923;SDS011;7554;43.600;1.480;2024-01-30T03:52:22;11.07;;;3.77;;
14923;SDS011;7554;43.600;1.480;2024-01-30T03:54:49;13.47;;;3.60;;
14923;SDS011;7554;43.600;1.480;2024-01-30T03:57:16;10.93;;;3.40;;
14923;SDS011;7554;43.600;1.480;2024-01-30T03:59:43;9.17;;;4.20;;
14923;SDS011;7554;43.600;1.480;2024-01-30T04:02:11;11.20;;;4.57;;
14923;SDS011;7554;43.600;1.480;2024-01-30T04:04:39;14.30;;;4.10;;
14923;SDS011;7554;43.600;1.480;2024-01-30T04:07:07;17.73;;;4.13;;
14923;SDS011;7554;43.600;1.480;2024-01-30T04:09:34;15.27;;;4.37;;
14923;SDS011;7554;43.600;1.480;2024-01-30T04:12:01;24.00;;;6.67;;
14923;SDS011;7554;43.600;1.480;2024-01-30T04:14:29;14.13;;;4.30;;
14923;SDS011;7554;43.600;1.480;2024-01-30T04:16:56;11.23;;;4.20;;
14923;SDS011;7554;43.600;1.480;2024-01-30T04:19:23;10.63;;;3.70;;
14923;SDS011;7554;43.600;1.480;2024-01-30T04:21:52;11.53;;;3.90;;
14923;SDS011;7554;43.600;1.480;2024-01-30T04:24:19;11.87;;;3.90;;
14923;SDS011;7554;43.600;1.480;2024-01-30T04:26:47;10.63;;;4.07;;
14923;SDS011;7554;43.600;1.480;2024-01-30T04:29:14;16.83;;;4.30;;
14923;SDS011;7554;43.600;1.480;2024-01-30T04:31:41;9.87;;;4.20;;
14923;SDS011;7554;43.600;1.480;2024-01-30T04:34:09;14.47;;;4.60;;
14923;SDS011;7554;43.600;1.480;2024-01-30T04:36:36;13.73;;;4.10;;
14923;SDS011;7554;43.600;1.480;2024-01-30T04:39:04;15.00;;;4.33;;
14923;SDS011;7554;43.600;1.480;2024-01-30T04:41:33;10.47;;;3.83;;
14923;SDS011;7554;43.600;1.480;2024-01-30T04:44:01;9.90;;;3.83;;
14923;SDS011;7554;43.600;1.480;2024-01-30T04:46:28;10.73;;;4.13;;
14923;SDS011;7554;43.600;1.480;2024-01-30T04:48:55;9.40;;;4.33;;
14923;SDS011;7554;43.600;1.480;2024-01-30T04:51:22;11.00;;;4.20;;
14923;SDS011;7554;43.600;1.480;2024-01-30T04:53:50;10.03;;;3.83;;
14923;SDS011;7554;43.600;1.480;2024-01-30T04:56:18;15.60;;;4.40;;
14923;SDS011;7554;43.600;1.480;2024-01-30T04:58:46;14.10;;;4.20;;
14923;SDS011;7554;43.600;1.480;2024-01-30T05:01:14;9.30;;;3.67;;
14923;SDS011;7554;43.600;1.480;2024-01-30T05:03:42;12.07;;;4.10;;
14923;SDS011;7554;43.600;1.480;2024-01-30T05:06:09;11.20;;;3.80;;
14923;SDS011;7554;43.600;1.480;2024-01-30T05:08:36;10.80;;;4.00;;
14923;SDS011;7554;43.600;1.480;2024-01-30T05:11:04;12.10;;;3.67;;
14923;SDS011;7554;43.600;1.480;2024-01-30T05:13:34;9.60;;;3.30;;
14923;SDS011;7554;43.600;1.480;2024-01-30T05:16:01;15.13;;;4.23;;
14923;SDS011;7554;43.600;1.480;2024-01-30T05:18:29;15.53;;;4.80;;
14923;SDS011;7554;43.600;1.480;2024-01-30T05:20:57;15.40;;;5.13;;
14923;SDS011;7554;43.600;1.480;2024-01-30T05:23:24;16.53;;;4.30;;
14923;SDS011;7554;43.600;1.480;2024-01-30T05:25:52;14.37;;;4.40;;
14923;SDS011;7554;43.600;1.480;2024-01-30T05:28:19;16.03;;;4.63;;
14923;SDS011;7554;43.600;1.480;2024-01-30T05:30:48;12.47;;;4.67;;
14923;SDS011;7554;43.600;1.480;2024-01-30T05:33:15;13.83;;;4.77;;
14923;SDS011;7554;43.600;1.480;2024-01-30T05:35:42;9.87;;;4.23;;
14923;SDS011;7554;43.600;1.480;2024-01-30T05:38:11;17.77;;;5.07;;
14923;SDS011;7554;43.600;1.480;2024-01-30T05:40:39;12.03;;;4.47;;
14923;SDS011;7554;43.600;1.480;2024-01-30T05:43:06;11.33;;;4.20;;
14923;SDS011;7554;43.600;1.480;2024-01-30T05:45:33;15.83;;;4.57;;
14923;SDS011;7554;43.600;1.480;2024-01-30T05:48:03;11.87;;;3.87;;
14923;SDS011;7554;43.600;1.480;2024-01-30T05:50:31;14.70;;;4.37;;
14923;SDS011;7554;43.600;1.480;2024-01-30T05:52:58;14.67;;;4.93;;
14923;SDS011;7554;43.600;1.480;2024-01-30T05:55:25;11.30;;;4.33;;
14923;SDS011;7554;43.600;1.480;2024-01-30T05:57:52;12.67;;;4.10;;
14923;SDS011;7554;43.600;1.480;2024-01-30T06:11:36;10.23;;;4.17;;
14923;SDS011;7554;43.600;1.480;2024-01-30T06:14:04;13.63;;;4.50;;
14923;SDS011;7554;43.600;1.480;2024-01-30T06:16:31;14.50;;;5.60;;
14923;SDS011;7554;43.600;1.480;2024-01-30T06:18:59;16.53;;;4.77;;
14923;SDS011;7554;43.600;1.480;2024-01-30T06:21:26;23.60;;;5.73;;
14923;SDS011;7554;43.600;1.480;2024-01-30T06:23:54;10.73;;;4.97;;
14923;SDS011;7554;43.600;1.480;2024-01-30T06:26:21;15.00;;;4.67;;
14923;SDS011;7554;43.600;1.480;2024-01-30T06:28:50;13.57;;;4.70;;
14923;SDS011;7554;43.600;1.480;2024-01-30T06:31:18;17.80;;;4.67;;
14923;SDS011;7554;43.600;1.480;2024-01-30T06:33:46;11.93;;;5.37;;
14923;SDS011;7554;43.600;1.480;2024-01-30T06:36:13;13.70;;;4.83;;
14923;SDS011;7554;43.600;1.480;2024-01-30T06:38:41;17.50;;;5.07;;
14923;SDS011;7554;43.600;1.480;2024-01-30T06:41:08;16.40;;;4.70;;
14923;SDS011;7554;43.600;1.480;2024-01-30T06:43:36;17.47;;;5.03;;
14923;SDS011;7554;43.600;1.480;2024-01-30T06:46:05;17.60;;;5.03;;
14923;SDS011;7554;43.600;1.480;2024-01-30T06:48:32;15.00;;;5.30;;
14923;SDS011;7554;43.600;1.480;2024-01-30T06:51:00;14.63;;;4.83;;
14923;SDS011;7554;43.600;1.480;2024-01-30T06:53:27;11.70;;;4.43;;
14923;SDS011;7554;43.600;1.480;2024-01-30T06:55:55;18.93;;;5.27;;
14923;SDS011;7554;43.600;1.480;2024-01-30T06:58:22;14.50;;;5.10;;
14923;SDS011;7554;43.600;1.480;2024-01-30T07:00:50;16.20;;;5.40;;
14923;SDS011;7554;43.600;1.480;2024-01-30T07:03:18;18.20;;;5.10;;
14923;SDS011;7554;43.600;1.480;2024-01-30T07:05:46;15.73;;;5.13;;
14923;SDS011;7554;43.600;1.480;2024-01-30T07:08:14;19.80;;;5.43;;
14923;SDS011;7554;43.600;1.480;2024-01-30T07:10:42;14.73;;;5.20;;
14923;SDS011;7554;43.600;1.480;2024-01-30T07:13:10;20.43;;;6.17;;
14923;SDS011;7554;43.600;1.480;2024-01-30T07:15:37;13.80;;;5.37;;
14923;SDS011;7554;43.600;1.480;2024-01-30T07:18:05;14.57;;;5.30;;
14923;SDS011;7554;43.600;1.480;2024-01-30T07:20:34;21.27;;;5.60;;
14923;SDS011;7554;43.600;1.480;2024-01-30T07:23:01;17.60;;;5.23;;
14923;SDS011;7554;43.600;1.480;2024-01-30T07:25:29;11.80;;;5.17;;
14923;SDS011;7554;43.600;1.480;2024-01-30T07:27:57;15.97;;;5.17;;
14923;SDS011;7554;43.600;1.480;2024-01-30T07:30:24;16.40;;;5.33;;
14923;SDS011;7554;43.600;1.480;2024-01-30T07:32:51;13.33;;;5.17;;
14923;SDS011;7554;43.600;1.480;2024-01-30T07:35:19;19.47;;;4.97;;
14923;SDS011;7554;43.600;1.480;2024-01-30T07:37:48;16.70;;;5.10;;
14923;SDS011;7554;43.600;1.480;2024-01-30T07:40:16;17.50;;;4.80;;
14923;SDS011;7554;43.600;1.480;2024-01-30T07:42:43;22.23;;;5.57;;
14923;SDS011;7554;43.600;1.480;2024-01-30T07:45:11;13.97;;;5.17;;
14923;SDS011;7554;43.600;1.480;2024-01-30T07:47:38;16.50;;;4.90;;
14923;SDS011;7554;43.600;1.480;2024-01-30T07:50:07;16.53;;;4.90;;
14923;SDS011;7554;43.600;1.480;2024-01-30T07:52:35;16.63;;;5.30;;
14923;SDS011;7554;43.600;1.480;2024-01-30T07:55:06;13.87;;;4.27;;
14923;SDS011;7554;43.600;1.480;2024-01-30T07:57:33;19.70;;;5.00;;
14923;SDS011;7554;43.600;1.480;2024-01-30T08:00:01;13.90;;;4.53;;
14923;SDS011;7554;43.600;1.480;2024-01-30T08:02:31;13.37;;;5.00;;
14923;SDS011;7554;43.600;1.480;2024-01-30T08:04:59;13.83;;;5.00;;
14923;SDS011;7554;43.600;1.480;2024-01-30T08:07:26;14.07;;;5.10;;
14923;SDS011;7554;43.600;1.480;2024-01-30T08:09:55;12.57;;;4.90;;
14923;SDS011;7554;43.600;1.480;2024-01-30T08:12:23;16.67;;;4.57;;
14923;SDS011;7554;43.600;1.480;2024-01-30T08:14:51;11.87;;;4.80;;
14923;SDS011;7554;43.600;1.480;2024-01-30T08:17:18;19.53;;;5.10;;
14923;SDS011;7554;43.600;1.480;2024-01-30T08:19:46;12.27;;;4.27;;
14923;SDS011;7554;43.600;1.480;2024-01-30T08:22:13;14.80;;;4.53;;
14923;SDS011;7554;43.600;1.480;2024-01-30T08:24:41;12.40;;;4.13;;
14923;SDS011;7554;43.600;1.480;2024-01-30T08:27:08;14.97;;;4.13;;
14923;SDS011;7554;43.600;1.480;2024-01-30T08:29:38;15.07;;;4.30;;
14923;SDS011;7554;43.600;1.480;2024-01-30T08:32:06;14.40;;;3.80;;
14923;SDS011;7554;43.600;1.480;2024-01-30T08:34:33;13.87;;;4.60;;
14923;SDS011;7554;43.600;1.480;2024-01-30T08:37:01;9.27;;;3.60;;
14923;SDS011;7554;43.600;1.480;2024-01-30T08:39:28;15.57;;;3.93;;
14923;SDS011;7554;43.600;1.480;2024-01-30T08:41:56;12.90;;;3.70;;
14923;SDS011;7554;43.600;1.480;2024-01-30T08:44:24;12.13;;;3.83;;
14923;SDS011;7554;43.600;1.480;2024-01-30T08:46:54;14.93;;;4.17;;
14923;SDS011;7554;43.600;1.480;2024-01-30T08:49:21;14.13;;;3.83;;
14923;SDS011;7554;43.600;1.480;2024-01-30T08:51:49;11.77;;;3.10;;
14923;SDS011;7554;43.600;1.480;2024-01-30T08:54:16;10.67;;;3.40;;
14923;SDS011;7554;43.600;1.480;2024-01-30T08:56:44;9.83;;;4.33;;
14923;SDS011;7554;43.600;1.480;2024-01-30T08:59:11;14.80;;;4.30;;
14923;SDS011;7554;43.600;1.480;2024-01-30T09:01:39;14.07;;;4.03;;
14923;SDS011;7554;43.600;1.480;2024-01-30T09:04:08;10.60;;;3.70;;
14923;SDS011;7554;43.600;1.480;2024-01-30T09:06:35;8.87;;;2.30;;
14923;SDS011;7554;43.600;1.480;2024-01-30T09:09:04;17.47;;;3.80;;
14923;SDS011;7554;43.600;1.480;2024-01-30T09:11:32;12.77;;;2.97;;
14923;SDS011;7554;43.600;1.480;2024-01-30T09:13:59;13.00;;;3.93;;
14923;SDS011;7554;43.600;1.480;2024-01-30T09:16:27;11.00;;;3.30;;
14923;SDS011;7554;43.600;1.480;2024-01-30T09:18:54;6.37;;;2.67;;
14923;SDS011;7554;43.600;1.480;2024-01-30T09:21:25;9.27;;;3.40;;
14923;SDS011;7554;43.600;1.480;2024-01-30T09:23:53;7.20;;;2.63;;
14923;SDS011;7554;43.600;1.480;2024-01-30T09:26:21;9.30;;;3.30;;
14923;SDS011;7554;43.600;1.480;2024-01-30T09:28:48;9.00;;;2.67;;
14923;SDS011;7554;43.600;1.480;2024-01-30T09:31:16;5.83;;;2.60;;
14923;SDS011;7554;43.600;1.480;2024-01-30T09:33:44;9.90;;;2.70;;
14923;SDS011;7554;43.600;1.480;2024-01-30T09:36:13;9.40;;;2.80;;
14923;SDS011;7554;43.600;1.480;2024-01-30T09:38:45;10.80;;;3.10;;
14923;SDS011;7554;43.600;1.480;2024-01-30T09:41:12;6.93;;;2.40;;
14923;SDS011;7554;43.600;1.480;2024-01-30T09:43:40;8.37;;;3.00;;
14923;SDS011;7554;43.600;1.480;2024-01-30T09:46:10;9.63;;;2.70;;
14923;SDS011;7554;43.600;1.480;2024-01-30T09:48:39;14.40;;;3.60;;
14923;SDS011;7554;43.600;1.480;2024-01-30T09:51:08;6.73;;;2.27;;
14923;SDS011;7554;43.600;1.480;2024-01-30T09:53:36;5.73;;;2.30;;
14923;SDS011;7554;43.600;1.480;2024-01-30T09:56:06;9.43;;;2.97;;
14923;SDS011;7554;43.600;1.480;2024-01-30T09:58:33;9.47;;;2.90;;
14923;SDS011;7554;43.600;1.480;2024-01-30T10:01:01;10.80;;;2.97;;
14923;SDS011;7554;43.600;1.480;2024-01-30T10:03:28;12.90;;;3.20;;
14923;SDS011;7554;43.600;1.480;2024-01-30T10:05:56;9.47;;;3.37;;
14923;SDS011;7554;43.600;1.480;2024-01-30T10:08:23;10.90;;;3.00;;
14923;SDS011;7554;43.600;1.480;2024-01-30T10:10:50;11.60;;;2.77;;
14923;SDS011;7554;43.600;1.480;2024-01-30T10:13:19;10.43;;;2.73;;
14923;SDS011;7554;43.600;1.480;2024-01-30T10:15:48;7.60;;;2.67;;
14923;SDS011;7554;43.600;1.480;2024-01-30T10:18:16;14.37;;;3.90;;
14923;SDS011;7554;43.600;1.480;2024-01-30T10:20:44;6.67;;;2.77;;
14923;SDS011;7554;43.600;1.480;2024-01-30T10:23:11;10.30;;;2.80;;
14923;SDS011;7554;43.600;1.480;2024-01-30T10:25:39;7.23;;;2.63;;
14923;SDS011;7554;43.600;1.480;2024-01-30T10:28:06;8.73;;;2.50;;
14923;SDS011;7554;43.600;1.480;2024-01-30T10:30:35;11.83;;;3.30;;
14923;SDS011;7554;43.600;1.480;2024-01-30T10:33:03;10.57;;;3.30;;
14923;SDS011;7554;43.600;1.480;2024-01-30T10:35:31;5.57;;;2.33;;
14923;SDS011;7554;43.600;1.480;2024-01-30T10:37:59;9.50;;;3.63;;
14923;SDS011;7554;43.600;1.480;2024-01-30T10:40:28;8.87;;;2.83;;
14923;SDS011;7554;43.600;1.480;2024-01-30T10:42:55;9.63;;;3.43;;
14923;SDS011;7554;43.600;1.480;2024-01-30T10:45:23;7.73;;;2.83;;
14923;SDS011;7554;43.600;1.480;2024-01-30T10:47:55;8.17;;;3.27;;
14923;SDS011;7554;43.600;1.480;2024-01-30T10:50:23;10.23;;;3.30;;
14923;SDS011;7554;43.600;1.480;2024-01-30T10:52:52;8.90;;;2.90;;
14923;SDS011;7554;43.600;1.480;2024-01-30T10:55:20;6.20;;;2.67;;
14923;SDS011;7554;43.600;1.480;2024-01-30T10:57:49;9.43;;;2.80;;
14923;SDS011;7554;43.600;1.480;2024-01-30T11:00:16;7.80;;;2.63;;
14923;SDS011;7554;43.600;1.480;2024-01-30T11:02:47;12.63;;;3.07;;
14923;SDS011;7554;43.600;1.480;2024-01-30T11:05:22;13.90;;;3.50;;
14923;SDS011;7554;43.600;1.480;2024-01-30T11:07:50;7.57;;;3.00;;
14923;SDS011;7554;43.600;1.480;2024-01-30T11:10:18;5.33;;;2.17;;
14923;SDS011;7554;43.600;1.480;2024-01-30T11:12:46;7.23;;;3.10;;
14923;SDS011;7554;43.600;1.480;2024-01-30T11:15:15;9.73;;;2.83;;
14923;SDS011;7554;43.600;1.480;2024-01-30T11:17:44;10.60;;;2.60;;
14923;SDS011;7554;43.600;1.480;2024-01-30T11:20:11;6.93;;;2.17;;
14923;SDS011;7554;43.600;1.480;2024-01-30T11:22:42;9.00;;;2.50;;
14923;SDS011;7554;43.600;1.480;2024-01-30T11:25:13;8.87;;;2.87;;
14923;SDS011;7554;43.600;1.480;2024-01-30T11:27:41;9.07;;;2.90;;
14923;SDS011;7554;43.600;1.480;2024-01-30T11:30:09;9.20;;;2.87;;
14923;SDS011;7554;43.600;1.480;2024-01-30T11:32:37;8.30;;;2.50;;
14923;SDS011;7554;43.600;1.480;2024-01-30T11:35:04;4.83;;;1.97;;
14923;SDS011;7554;43.600;1.480;2024-01-30T11:37:36;8.10;;;2.70;;
14923;SDS011;7554;43.600;1.480;2024-01-30T11:40:06;8.40;;;3.10;;
14923;SDS011;7554;43.600;1.480;2024-01-30T11:42:34;5.83;;;2.57;;
14923;SDS011;7554;43.600;1.480;2024-01-30T11:45:05;12.87;;;3.23;;
14923;SDS011;7554;43.600;1.480;2024-01-30T11:47:34;9.47;;;2.50;;
14923;SDS011;7554;43.600;1.480;2024-01-30T11:50:02;10.13;;;2.53;;
14923;SDS011;7554;43.600;1.480;2024-01-30T11:52:31;7.03;;;2.90;;
14923;SDS011;7554;43.600;1.480;2024-01-30T11:54:59;10.47;;;3.23;;
14923;SDS011;7554;43.600;1.480;2024-01-30T11:57:29;10.27;;;2.60;;
14923;SDS011;7554;43.600;1.480;2024-01-30T11:59:56;7.10;;;2.53;;
14923;SDS011;7554;43.600;1.480;2024-01-30T12:02:24;9.37;;;2.70;;
14923;SDS011;7554;43.600;1.480;2024-01-30T12:04:51;7.87;;;2.30;;
14923;SDS011;7554;43.600;1.480;2024-01-30T12:07:19;5.43;;;2.10;;
14923;SDS011;7554;43.600;1.480;2024-01-30T12:09:52;7.27;;;2.47;;
14923;SDS011;7554;43.600;1.480;2024-01-30T12:12:21;7.17;;;1.97;;
14923;SDS011;7554;43.600;1.480;2024-01-30T12:14:50;3.57;;;1.33;;
14923;SDS011;7554;43.600;1.480;2024-01-30T12:17:28;10.57;;;2.83;;
14923;SDS011;7554;43.600;1.480;2024-01-30T12:20:05;8.03;;;2.20;;
14923;SDS011;7554;43.600;1.480;2024-01-30T12:22:33;5.47;;;1.73;;
14923;SDS011;7554;43.600;1.480;2024-01-30T12:25:04;10.53;;;2.37;;
14923;SDS011;7554;43.600;1.480;2024-01-30T12:27:31;5.47;;;2.33;;
14923;SDS011;7554;43.600;1.480;2024-01-30T12:30:01;4.60;;;2.17;;
14923;SDS011;7554;43.600;1.480;2024-01-30T12:32:28;5.27;;;2.30;;
14923;SDS011;7554;43.600;1.480;2024-01-30T12:34:56;11.97;;;2.60;;
14923;SDS011;7554;43.600;1.480;2024-01-30T12:37:24;10.30;;;2.40;;
14923;SDS011;7554;43.600;1.480;2024-01-30T12:39:52;8.20;;;2.00;;
14923;SDS011;7554;43.600;1.480;2024-01-30T12:42:20;8.10;;;2.70;;
14923;SDS011;7554;43.600;1.480;2024-01-30T12:44:47;11.17;;;2.53;;
14923;SDS011;7554;43.600;1.480;2024-01-30T12:47:16;8.40;;;2.23;;
14923;SDS011;7554;43.600;1.480;2024-01-30T12:49:44;8.57;;;3.20;;
14923;SDS011;7554;43.600;1.480;2024-01-30T12:52:12;7.90;;;2.67;;
14923;SDS011;7554;43.600;1.480;2024-01-30T12:54:41;11.13;;;2.67;;
14923;SDS011;7554;43.600;1.480;2024-01-30T12:57:09;10.33;;;3.20;;
14923;SDS011;7554;43.600;1.480;2024-01-30T12:59:36;10.60;;;2.67;;
14923;SDS011;7554;43.600;1.480;2024-01-30T13:02:04;10.07;;;2.27;;
14923;SDS011;7554;43.600;1.480;2024-01-30T13:04:33;6.67;;;1.77;;
14923;SDS011;7554;43.600;1.480;2024-01-30T13:07:01;9.50;;;2.40;;
14923;SDS011;7554;43.600;1.480;2024-01-30T13:09:29;13.10;;;3.03;;
14923;SDS011;7554;43.600;1.480;2024-01-30T13:11:57;7.87;;;2.60;;
14923;SDS011;7554;43.600;1.480;2024-01-30T13:14:25;7.00;;;2.00;;
14923;SDS011;7554;43.600;1.480;2024-01-30T13:16:52;7.67;;;2.67;;
14923;SDS011;7554;43.600;1.480;2024-01-30T13:19:20;6.67;;;2.43;;
14923;SDS011;7554;43.600;1.480;2024-01-30T13:21:48;7.70;;;2.43;;
14923;SDS011;7554;43.600;1.480;2024-01-30T13:24:16;7.17;;;2.20;;
14923;SDS011;7554;43.600;1.480;2024-01-30T13:26:46;4.80;;;1.63;;
14923;SDS011;7554;43.600;1.480;2024-01-30T13:29:14;11.23;;;2.30;;
14923;SDS011;7554;43.600;1.480;2024-01-30T13:31:41;7.67;;;2.53;;
14923;SDS011;7554;43.600;1.480;2024-01-30T13:34:11;6.57;;;2.50;;
14923;SDS011;7554;43.600;1.480;2024-01-30T13:36:39;10.87;;;2.47;;
14923;SDS011;7554;43.600;1.480;2024-01-30T13:39:08;7.10;;;2.53;;
14923;SDS011;7554;43.600;1.480;2024-01-30T13:41:37;10.87;;;2.70;;
14923;SDS011;7554;43.600;1.480;2024-01-30T13:44:05;5.77;;;2.50;;
14923;SDS011;7554;43.600;1.480;2024-01-30T13:46:33;7.30;;;2.03;;
14923;SDS011;7554;43.600;1.480;2024-01-30T13:49:01;7.30;;;2.57;;
14923;SDS011;7554;43.600;1.480;2024-01-30T13:51:27;8.27;;;2.10;;
14923;SDS011;7554;43.600;1.480;2024-01-30T13:53:55;9.17;;;2.53;;
14923;SDS011;7554;43.600;1.480;2024-01-30T13:56:24;7.87;;;2.20;;
14923;SDS011;7554;43.600;1.480;2024-01-30T13:58:52;6.80;;;2.63;;
14923;SDS011;7554;43.600;1.480;2024-01-30T14:01:20;7.13;;;2.40;;
14923;SDS011;7554;43.600;1.480;2024-01-30T14:03:48;10.17;;;2.47;;
14923;SDS011;7554;43.600;1.480;2024-01-30T14:06:16;9.40;;;2.67;;
14923;SDS011;7554;43.600;1.480;2024-01-30T14:08:43;10.17;;;2.67;;
14923;SDS011;7554;43.600;1.480;2024-01-30T14:11:11;9.33;;;2.70;;
14923;SDS011;7554;43.600;1.480;2024-01-30T14:13:40;8.93;;;2.23;;
14923;SDS011;7554;43.600;1.480;2024-01-30T14:16:08;7.27;;;2.10;;
14923;SDS011;7554;43.600;1.480;2024-01-30T14:18:36;7.17;;;2.60;;
14923;SDS011;7554;43.600;1.480;2024-01-30T14:21:03;7.90;;;2.10;;
14923;SDS011;7554;43.600;1.480;2024-01-30T14:23:32;7.23;;;2.47;;
14923;SDS011;7554;43.600;1.480;2024-01-30T14:26:00;7.87;;;2.30;;
14923;SDS011;7554;43.600;1.480;2024-01-30T14:28:28;7.87;;;2.60;;
14923;SDS011;7554;43.600;1.480;2024-01-30T14:30:56;10.50;;;3.10;;
14923;SDS011;7554;43.600;1.480;2024-01-30T14:33:24;6.63;;;2.70;;
14923;SDS011;7554;43.600;1.480;2024-01-30T14:35:51;7.43;;;2.83;;
14923;SDS011;7554;43.600;1.480;2024-01-30T14:38:19;8.73;;;2.50;;
14923;SDS011;7554;43.600;1.480;2024-01-30T14:40:46;10.73;;;2.40;;
14923;SDS011;7554;43.600;1.480;2024-01-30T14:43:14;8.70;;;2.20;;
14923;SDS011;7554;43.600;1.480;2024-01-30T14:45:41;8.30;;;2.63;;
14923;SDS011;7554;43.600;1.480;2024-01-30T14:48:12;7.27;;;2.30;;
14923;SDS011;7554;43.600;1.480;2024-01-30T14:50:40;10.10;;;2.90;;
14923;SDS011;7554;43.600;1.480;2024-01-30T14:53:07;7.20;;;2.60;;
14923;SDS011;7554;43.600;1.480;2024-01-30T14:55:35;5.10;;;1.63;;
14923;SDS011;7554;43.600;1.480;2024-01-30T14:58:02;5.17;;;2.00;;
14923;SDS011;7554;43.600;1.480;2024-01-30T15:00:30;7.07;;;2.37;;
14923;SDS011;7554;43.600;1.480;2024-01-30T15:02:58;5.80;;;2.20;;
14923;SDS011;7554;43.600;1.480;2024-01-30T15:05:27;10.40;;;2.60;;
14923;SDS011;7554;43.600;1.480;2024-01-30T15:07:54;9.10;;;2.90;;